Racine, WI

7:54 AM CST on December 09, 2019 (GMT -0600)
Near Racine Zoo | | Change Station
Active Advisory: Special Statement

Elev 620 ft 42.75 °N, 87.79 °W | Updated 7 seconds ago

Overcast
Overcast
44.1 °F
Feels Like 44 °F
N
1.6
Wind Variable Wind from West
Gusts 5.4 mph

Today
High -- | Low -- °F
--% Chance of Precip.
Yesterday
High -- | Low -- °F
Precip. -- in
Pressure 29.55 in
Visibility 1.2 miles
Clouds Overcast 300 ft
Windchill 44 °F
Dew Point 44 °F
Humidity 98%
Rainfall 0.01 in
Snow Depth Not available.
7:09 AM 4:17 PM
Waxing Gibbous, 93% visible
METAR KRAC 091253Z AUTO 00000KT 1 1/4SM BR OVC003 06/05 A2954 RMK AO2 SLP005 P0001 T00610050
Pressure 29.55 in
Visibility 1.2 miles
Clouds Overcast 300 ft
Windchill 44 °F
Dew Point 44 °F
Humidity 98%
Rainfall 0.01 in
Snow Depth Not available.
7:09 AM 4:17 PM
Waxing Gibbous, 93% visible
METAR KRAC 091253Z AUTO 00000KT 1 1/4SM BR OVC003 06/05 A2954 RMK AO2 SLP005 P0001 T00610050

Get Your Daily Forecast Email!

Thanks for signing up!

Be on the lookout for a verification email in your inbox.

You'll start receiving severe weather alerts in your inbox..

×

10-Day Weather Forecast

Almanac

Astronomy

Dec. 09, 2019 Rise Set
Actual Time
Civil Twilight
Nautical Twilight
Astronomical Twilight
Moon
Length of Visible Light
Length of Day
Tomorrow will be .
, % of the Moon is Illuminated

Today's Extremes

State Highs State Lows

Community

WunderPhotos

Category 6

Welcome to Category 6. This is the collective home for Weather Underground's featured writeups by Dr. Jeff Masters (right), Bob Henson (left), Chris Burt, and other regular contributors.

Nearby

Air Quality

  Air Quality AQ Index Pollutant
Not available.

Snow Depth

Station Depth Elevation

Earthquake Activity

City Distance Mag. Time & Date
Minimum magnitude displayed is 2.5.

Coastal Water Temperatures

Place Temperature

Stations

Nearby Weather Stations

Station Location Temp. Windchill Dew Point Humidity Wind Precip. Elev Updated Type
                   

Watches & Warnings

Special Statement
Issued: 4:21 AM CST Dec. 9, 2019 – National Weather Service

... Areas of fog across portions of southern Wisconsin this
morning...

Areas of fog with general visibilities of 1 to 3 miles have
developed this morning with some location's visibilities dropping
below 1 miles at times. The lower visibilities will impact the
morning commute. Expect visibilities to gradually improve through
the morning.